Map

Track Data

SID SEASON NUMBER BASIN SUBBASIN NAME ISO_TIME NATURE LAT LON WMO_WIND WMO_PRES WMO_AGENCY TRACK_TYPE DIST2LAND LANDFALL IFLAG USA_AGENCY USA_ATCF_ID USA_LAT USA_LON USA_RECORD USA_STATUS USA_WIND USA_PRES USA_SSHS USA_R34_NE USA_R34_SE USA_R34_SW USA_R34_NW USA_R50_NE USA_R50_SE USA_R50_SW USA_R50_NW USA_R64_NE USA_R64_SE USA_R64_SW USA_R64_NW USA_POCI USA_ROCI USA_RMW USA_EYE TOKYO_LAT TOKYO_LON TOKYO_GRADE TOKYO_WIND TOKYO_PRES TOKYO_R50_DIR TOKYO_R50_LONG TOKYO_R50_SHORT TOKYO_R30_DIR TOKYO_R30_LONG TOKYO_R30_SHORT TOKYO_LAND CMA_LAT CMA_LON CMA_CAT CMA_WIND CMA_PRES HKO_LAT HKO_LON HKO_CAT HKO_WIND HKO_PRES NEWDELHI_LAT NEWDELHI_LON NEWDELHI_GRADE NEWDELHI_WIND NEWDELHI_PRES NEWDELHI_CI NEWDELHI_DP NEWDELHI_POCI REUNION_LAT REUNION_LON REUNION_TYPE REUNION_WIND REUNION_PRES REUNION_TNUM REUNION_CI REUNION_RMW REUNION_R34_NE REUNION_R34_SE REUNION_R34_SW REUNION_R34_NW REUNION_R50_NE REUNION_R50_SE REUNION_R50_SW REUNION_R50_NW REUNION_R64_NE REUNION_R64_SE REUNION_R64_SW REUNION_R64_NW BOM_LAT BOM_LON BOM_TYPE BOM_WIND BOM_PRES BOM_TNUM BOM_CI BOM_RMW BOM_R34_NE BOM_R34_SE BOM_R34_SW BOM_R34_NW BOM_R50_NE BOM_R50_SE BOM_R50_SW BOM_R50_NW BOM_R64_NE BOM_R64_SE BOM_R64_SW BOM_R64_NW BOM_ROCI BOM_POCI BOM_EYE BOM_POS_METHOD BOM_PRES_METHOD NADI_LAT NADI_LON NADI_CAT NADI_WIND NADI_PRES WELLINGTON_LAT WELLINGTON_LON WELLINGTON_WIND WELLINGTON_PRES DS824_LAT DS824_LON DS824_STAGE DS824_WIND DS824_PRES TD9636_LAT TD9636_LON TD9636_STAGE TD9636_WIND TD9636_PRES TD9635_LAT TD9635_LON TD9635_WIND TD9635_PRES TD9635_ROCI NEUMANN_LAT NEUMANN_LON NEUMANN_CLASS NEUMANN_WIND NEUMANN_PRES MLC_LAT MLC_LON MLC_CLASS MLC_WIND MLC_PRES USA_GUST BOM_GUST BOM_GUST_PER REUNION_GUST REUNION_GUST_PER USA_SEAHGT USA_SEARAD_NE USA_SEARAD_SE USA_SEARAD_SW USA_SEARAD_NW STORM_SPEED STORM_DIR
1872274N13328 1872 23 NA NA NOT_NAMED 1872-09-30 00:00:00 TS 13.0000 -31.7000 40 hurdat_atl main 1545 1545 O_____________ hurdat_atl AL041872 13.0000 -31.7000 TS 40 0 11 293
1872274N13328 1872 23 NA NA NOT_NAMED 1872-09-30 03:00:00 TS 13.2052 -32.1998 main 1595 1595 P_____________ AL041872 13.2052 -32.1998 TS 40 0 11 292
1872274N13328 1872 23 NA NA NOT_NAMED 1872-09-30 06:00:00 TS 13.4000 -32.7000 40 hurdat_atl main 1646 1646 O_____________ hurdat_atl AL041872 13.4000 -32.7000 TS 40 0 10 291
1872274N13328 1872 23 NA NA NOT_NAMED 1872-09-30 09:00:00 TS 13.5849 -33.2002 main 1697 1697 P_____________ AL041872 13.5849 -33.2002 TS 40 0 11 292
1872274N13328 1872 23 NA NA NOT_NAMED 1872-09-30 12:00:00 TS 13.8000 -33.7000 40 hurdat_atl main 1749 1749 O_____________ hurdat_atl AL041872 13.8000 -33.7000 TS 40 0 11 297
1872274N13328 1872 23 NA NA NOT_NAMED 1872-09-30 15:00:00 TS 14.0622 -34.1778 main 1800 1800 P_____________ AL041872 14.0622 -34.1778 TS 40 0 11 302
1872274N13328 1872 23 NA NA NOT_NAMED 1872-09-30 18:00:00 TS 14.4000 -34.7000 40 hurdat_atl main 1851 1851 O_____________ hurdat_atl AL041872 14.4000 -34.7000 TS 40 0 13 305
1872274N13328 1872 23 NA NA NOT_NAMED 1872-09-30 21:00:00 TS 14.8274 -35.3200 main 1914 1914 P_____________ AL041872 14.8274 -35.3200 TS 45 0 16 306
1872274N13328 1872 23 NA NA NOT_NAMED 1872-10-01 00:00:00 TS 15.3000 -36.0000 50 hurdat_atl main 1988 1988 O_____________ hurdat_atl AL041872 15.3000 -36.0000 TS 50 0 16 305
1872274N13328 1872 23 NA NA NOT_NAMED 1872-10-01 03:00:00 TS 15.7424 -36.7003 main 2044 2020 P_____________ AL041872 15.7424 -36.7003 TS 50 0 16 304
1872274N13328 1872 23 NA NA NOT_NAMED 1872-10-01 06:00:00 TS 16.2000 -37.4000 50 hurdat_atl main 2020 2001 O_____________ hurdat_atl AL041872 16.2000 -37.4000 TS 50 0 17 306
1872274N13328 1872 23 NA NA NOT_NAMED 1872-10-01 09:00:00 TS 16.7150 -38.0948 main 2001 1993 P_____________ AL041872 16.7150 -38.0948 TS 50 0 16 309
1872274N13328 1872 23 NA NA NOT_NAMED 1872-10-01 12:00:00 TS 17.2000 -38.7000 50 hurdat_atl main 1993 1986 O_____________ hurdat_atl AL041872 17.2000 -38.7000 TS 50 0 13 311
1872274N13328 1872 23 NA NA NOT_NAMED 1872-10-01 15:00:00 TS 17.5796 -39.1380 main 1996 1989 P_____________ AL041872 17.5796 -39.1380 TS 50 0 10 313
1872274N13328 1872 23 NA NA NOT_NAMED 1872-10-01 18:00:00 TS 17.9000 -39.5000 50 hurdat_atl main 1992 1987 O_____________ hurdat_atl AL041872 17.9000 -39.5000 TS 50 0 10 311
1872274N13328 1872 23 NA NA NOT_NAMED 1872-10-01 21:00:00 TS 18.2075 -39.9076 main 1990 1983 P_____________ AL041872 18.2075 -39.9076 TS 55 0 10 308
1872274N13328 1872 23 NA NA NOT_NAMED 1872-10-02 00:00:00 TS 18.5000 -40.3000 60 hurdat_atl main 1989 1983 O_____________ hurdat_atl AL041872 18.5000 -40.3000 TS 60 0 9 310
1872274N13328 1872 23 NA NA NOT_NAMED 1872-10-02 03:00:00 TS 18.7773 -40.6355 main 1997 1990 P_____________ AL041872 18.7773 -40.6355 TS 60 0 9 312
1872274N13328 1872 23 NA NA NOT_NAMED 1872-10-02 06:00:00 TS 19.1000 -41.0000 60 hurdat_atl main 1999 1996 O_____________ hurdat_atl AL041872 19.1000 -41.0000 TS 60 0 11 313
1872274N13328 1872 23 NA NA NOT_NAMED 1872-10-02 09:00:00 TS 19.5201 -41.4850 main 2002 2002 P_____________ AL041872 19.5201 -41.4850 TS 60 0 13 314
1872274N13328 1872 23 NA NA NOT_NAMED 1872-10-02 12:00:00 TS 20.0000 -42.0000 60 hurdat_atl main 2015 2015 O_____________ hurdat_atl AL041872 20.0000 -42.0000 TS 60 0 13 317
1872274N13328 1872 23 NA NA NOT_NAMED 1872-10-02 15:00:00 TS 20.4923 -42.4578 main 2031 2031 P_____________ AL041872 20.4923 -42.4578 TS 60 0 13 320
1872274N13328 1872 23 NA NA NOT_NAMED 1872-10-02 18:00:00 TS 21.0000 -42.9000 60 hurdat_atl main 2055 2055 O_____________ hurdat_atl AL041872 21.0000 -42.9000 TS 60 0 13 320
1872274N13328 1872 23 NA NA NOT_NAMED 1872-10-02 21:00:00 TS 21.4923 -43.3430 main 2082 2076 P_____________ AL041872 21.4923 -43.3430 TS 65 1 13 320
1872274N13328 1872 23 NA NA NOT_NAMED 1872-10-03 00:00:00 TS 22.0000 -43.8000 70 hurdat_atl main 2105 2105 O_____________ hurdat_atl AL041872 22.0000 -43.8000 HU 70 1 14 320
1872274N13328 1872 23 NA NA NOT_NAMED 1872-10-03 03:00:00 TS 22.5575 -44.3000 main 2141 2136 P_____________ AL041872 22.5575 -44.3000 HU 70 1 14 320
1872274N13328 1872 23 NA NA NOT_NAMED 1872-10-03 06:00:00 TS 23.1000 -44.8000 70 hurdat_atl main 2169 2169 O_____________ hurdat_atl AL041872 23.1000 -44.8000 HU 70 1 13 318
1872274N13328 1872 23 NA NA NOT_NAMED 1872-10-03 09:00:00 TS 23.5499 -45.2656 main 2181 2150 P_____________ AL041872 23.5499 -45.2656 HU 70 1 12 317
1872274N13328 1872 23 NA NA NOT_NAMED 1872-10-03 12:00:00 TS 24.0000 -45.7000 70 hurdat_atl main 2153 2127 O_____________ hurdat_atl AL041872 24.0000 -45.7000 HU 70 1 12 321
1872274N13328 1872 23 NA NA NOT_NAMED 1872-10-03 15:00:00 TS 24.5199 -46.1153 main 2127 2103 P_____________ AL041872 24.5199 -46.1153 HU 70 1 13 327
1872274N13328 1872 23 NA NA NOT_NAMED 1872-10-03 18:00:00 TS 25.1000 -46.5000 70 hurdat_atl main 2106 2095 O_____________ hurdat_atl AL041872 25.1000 -46.5000 HU 70 1 14 331
1872274N13328 1872 23 NA NA NOT_NAMED 1872-10-03 21:00:00 TS 25.7348 -46.8505 main 2089 2084 P_____________ AL041872 25.7348 -46.8505 HU 70 1 15 334
1872274N13328 1872 23 NA NA NOT_NAMED 1872-10-04 00:00:00 TS 26.4000 -47.2000 70 hurdat_atl main 2088 2077 O_____________ hurdat_atl AL041872 26.4000 -47.2000 HU 70 1 15 333
1872274N13328 1872 23 NA NA NOT_NAMED 1872-10-04 03:00:00 TS 27.0499 -47.5928 main 2077 2070 P_____________ AL041872 27.0499 -47.5928 HU 70 1 15 331
1872274N13328 1872 23 NA NA NOT_NAMED 1872-10-04 06:00:00 TS 27.7000 -48.0000 70 hurdat_atl main 2074 2069 O_____________ hurdat_atl AL041872 27.7000 -48.0000 HU 70 1 15 331
1872274N13328 1872 23 NA NA NOT_NAMED 1872-10-04 09:00:00 TS 28.3500 -48.4152 main 2069 1996 P_____________ AL041872 28.3500 -48.4152 HU 70 1 15 332
1872274N13328 1872 23 NA NA NOT_NAMED 1872-10-04 12:00:00 TS 29.0000 -48.8000 70 hurdat_atl main 1996 1925 O_____________ hurdat_atl AL041872 29.0000 -48.8000 HU 70 1 14 334
1872274N13328 1872 23 NA NA NOT_NAMED 1872-10-04 15:00:00 TS 29.6424 -49.1304 main 1925 1843 P_____________ AL041872 29.6424 -49.1304 HU 70 1 14 338
1872274N13328 1872 23 NA NA NOT_NAMED 1872-10-04 18:00:00 TS 30.3000 -49.4000 70 hurdat_atl main 1843 1763 O_____________ hurdat_atl AL041872 30.3000 -49.4000 HU 70 1 14 342
1872274N13328 1872 23 NA NA NOT_NAMED 1872-10-04 21:00:00 TS 30.9999 -49.6302 main 1763 1683 P_____________ AL041872 30.9999 -49.6302 HU 70 1 14 346
1872274N13328 1872 23 NA NA NOT_NAMED 1872-10-05 00:00:00 TS 31.7000 -49.8000 70 hurdat_atl main 1683 1616 O_____________ hurdat_atl AL041872 31.7000 -49.8000 HU 70 1 14 349
1872274N13328 1872 23 NA NA NOT_NAMED 1872-10-05 03:00:00 TS 32.3425 -49.9375 main 1616 1537 P_____________ AL041872 32.3425 -49.9375 HU 70 1 13 353
1872274N13328 1872 23 NA NA NOT_NAMED 1872-10-05 06:00:00 TS 33.0000 -50.0000 70 hurdat_atl main 1537 1460 O_____________ hurdat_atl AL041872 33.0000 -50.0000 HU 70 1 14 356
1872274N13328 1872 23 NA NA NOT_NAMED 1872-10-05 09:00:00 TS 33.7046 -50.0455 main 1460 1374 P_____________ AL041872 33.7046 -50.0455 HU 70 1 15 3
1872274N13328 1872 23 NA NA NOT_NAMED 1872-10-05 12:00:00 TS 34.5000 -49.9000 70 hurdat_atl main 1374 1281 O_____________ hurdat_atl AL041872 34.5000 -49.9000 HU 70 1 18 14
1872274N13328 1872 23 NA NA NOT_NAMED 1872-10-05 15:00:00 TS 35.4261 -49.5206 main 1283 1199 P_____________ AL041872 35.4261 -49.5206 HU 70 1 21 25
1872274N13328 1872 23 NA NA NOT_NAMED 1872-10-05 18:00:00 TS 36.4000 -48.8000 70 hurdat_atl main 1191 1122 O_____________ hurdat_atl AL041872 36.4000 -48.8000 HU 70 1 24 37
1872274N13328 1872 23 NA NA NOT_NAMED 1872-10-05 21:00:00 TS 37.3607 -47.7150 main 1118 1082 P_____________ AL041872 37.3607 -47.7150 HU 70 1 26 47
1872274N13328 1872 23 NA NA NOT_NAMED 1872-10-06 00:00:00 TS 38.2000 -46.4000 70 hurdat_atl main 1086 1078 O_____________ hurdat_atl AL041872 38.2000 -46.4000 HU 70 1 25 54
1872274N13328 1872 23 NA NA NOT_NAMED 1872-10-06 03:00:00 TS 38.8309 -45.1271 main 1088 1079 P_____________ AL041872 38.8309 -45.1271 HU 70 1 23 61
1872274N13328 1872 23 NA NA NOT_NAMED 1872-10-06 06:00:00 TS 39.3000 -43.8000 70 hurdat_atl main 1112 1112 O_____________ hurdat_atl AL041872 39.3000 -43.8000 HU 70 1 23 68
1872274N13328 1872 23 NA NA NOT_NAMED 1872-10-06 09:00:00 TS 39.6932 -42.4278 main 1160 1160 P_____________ AL041872 39.6932 -42.4278 HU 70 1 23 72
1872274N13328 1872 23 NA NA NOT_NAMED 1872-10-06 12:00:00 TS 40.0000 -41.0000 70 hurdat_atl main 1224 1224 O_____________ hurdat_atl AL041872 40.0000 -41.0000 HU 70 1 23 76
1872274N13328 1872 23 NA NA NOT_NAMED 1872-10-06 15:00:00 TS 40.2641 -39.5175 main 1299 1299 P_____________ AL041872 40.2641 -39.5175 HU 70 1 23 78
1872274N13328 1872 23 NA NA NOT_NAMED 1872-10-06 18:00:00 TS 40.5000 -38.0000 70 hurdat_atl main 1388 O_____________ hurdat_atl AL041872 40.5000 -38.0000 HU 70 1 24 78

About IBTrACS Database

This database is a web-friendly format of International Best Track Archive for Climate Stewardship (IBTrACS), a global best track data archive curated by NOAA dating back to 1842.

Updated: 2021-10-21